Time;durP1;ratioP1;P1;durP2;ratioP2;P2;SDS_P1;SDS_P2;PMS_P1;PMS_P2;Temp;Humidity;BMP_temperature;BMP_pressure;BME280_temperature;BME280_humidity;BME280_pressure;Samples;Min_cycle;Max_cycle;Signal;HPM_P1;HPM_P2
2022/09/22 03:52:12;;;;;;;13.60;8.15;;;;;;;8.47;94.13;100758.89;1640360;85;25760;-71
2022/09/22 03:54:39;;;;;;;14.07;7.67;;;;;;;8.48;94.06;100763.73;1637703;87;25576;-71
2022/09/22 03:57:05;;;;;;;12.37;7.42;;;;;;;8.49;94.11;100767.49;1629142;87;26185;-71
2022/09/22 03:59:32;;;;;;;14.53;8.05;;;;;;;8.49;94.07;100762.09;1637284;86;25468;-70
2022/09/22 04:01:59;;;;;;;12.15;8.05;;;;;;;8.49;94.08;100764.80;1622756;87;27372;-70
2022/09/22 04:04:26;;;;;;;13.45;8.30;;;;;;;8.49;94.15;100764.80;1618668;88;25555;-70
2022/09/22 04:06:53;;;;;;;12.75;7.87;;;;;;;8.49;94.16;100765.34;1627318;87;25612;-70
2022/09/22 04:09:19;;;;;;;13.88;8.10;;;;;;;8.51;94.19;100768.56;1619895;87;25626;-70
2022/09/22 04:11:46;;;;;;;11.85;8.33;;;;;;;8.50;94.13;100764.27;1610698;86;25713;-70
2022/09/22 04:14:12;;;;;;;13.53;8.55;;;;;;;8.51;94.24;100769.38;1633061;86;28175;-70
2022/09/22 04:16:41;;;;;;;14.60;8.45;;;;;;;8.52;94.25;100768.28;1613682;88;25661;-70
2022/09/22 04:19:08;;;;;;;13.70;7.90;;;;;;;8.52;94.28;100768.83;1595853;87;25804;-70
2022/09/22 04:21:35;;;;;;;12.05;8.63;;;;;;;8.53;94.34;100771.25;1628332;87;25658;-70
2022/09/22 04:24:02;;;;;;;15.75;9.10;;;;;;;8.54;94.36;100773.39;1624493;87;25492;-70
2022/09/22 04:26:29;;;;;;;14.00;9.05;;;;;;;8.53;94.39;100772.59;1617411;87;27359;-70
2022/09/22 04:28:56;;;;;;;17.35;9.30;;;;;;;8.55;94.45;100771.77;1624538;87;25728;-70
2022/09/22 04:31:22;;;;;;;14.55;8.85;;;;;;;8.55;94.40;100777.16;1620260;87;25629;-71
2022/09/22 04:33:49;;;;;;;11.57;8.03;;;;;;;8.58;94.53;100774.42;1624700;87;26299;-70
2022/09/22 04:36:15;;;;;;;13.75;9.03;;;;;;;8.58;94.63;100776.59;1616367;86;25454;-70
2022/09/22 04:38:42;;;;;;;17.70;9.05;;;;;;;8.61;94.60;100779.25;1625077;86;27338;-70
2022/09/22 04:41:08;;;;;;;16.85;8.55;;;;;;;8.62;94.73;100778.17;1648958;85;25640;-70
2022/09/22 04:43:35;;;;;;;13.75;8.53;;;;;;;8.65;94.77;100772.75;1648955;86;25436;-70
2022/09/22 04:46:01;;;;;;;16.67;8.58;;;;;;;8.66;94.86;100776.51;1670010;85;25684;-71
2022/09/22 04:48:27;;;;;;;15.25;8.40;;;;;;;8.67;94.87;100771.39;1670137;85;25577;-71
2022/09/22 04:50:54;;;;;;;13.95;8.60;;;;;;;8.69;94.89;100771.11;1670018;83;27321;-71
2022/09/22 04:53:20;;;;;;;15.23;8.53;;;;;;;8.70;94.89;100776.22;1664423;85;25472;-71
2022/09/22 04:55:49;;;;;;;12.33;8.43;;;;;;;8.72;94.87;100772.69;1660954;84;25512;-71
2022/09/22 04:58:16;;;;;;;13.83;8.08;;;;;;;8.74;94.91;100775.90;1660980;86;25627;-71
2022/09/22 05:00:43;;;;;;;13.00;7.87;;;;;;;8.77;95.04;100778.03;1651653;86;25397;-70
2022/09/22 05:03:11;;;;;;;14.18;8.30;;;;;;;8.78;95.05;100776.13;1651227;85;27394;-71
2022/09/22 05:05:39;;;;;;;13.30;8.03;;;;;;;8.80;95.19;100777.98;1630641;86;25647;-72
2022/09/22 05:08:06;;;;;;;13.13;7.83;;;;;;;8.83;95.25;100777.42;1651783;85;25469;-71
2022/09/22 05:10:34;;;;;;;12.55;7.72;;;;;;;8.87;95.39;100776.31;1660870;86;25639;-71
2022/09/22 05:13:02;;;;;;;14.53;8.28;;;;;;;8.89;95.48;100776.85;1641497;85;25705;-72
2022/09/22 05:15:31;;;;;;;12.47;8.50;;;;;;;8.91;95.59;100780.06;1645434;85;28036;-72
2022/09/22 05:17:57;;;;;;;12.40;8.15;;;;;;;8.93;95.56;100781.92;1648729;86;25802;-71
2022/09/22 05:20:23;;;;;;;16.45;8.80;;;;;;;8.95;95.54;100782.44;1646337;86;25581;-71
2022/09/22 05:22:52;;;;;;;17.02;8.73;;;;;;;8.98;95.59;100782.66;1654674;86;25618;-71
2022/09/22 05:25:19;;;;;;;14.30;8.30;;;;;;;9.01;95.71;100793.45;1648481;84;25577;-71
2022/09/22 05:27:51;;;;;;;13.10;7.87;;;;;;;9.05;95.75;100790.42;1654575;86;27408;-71
2022/09/22 05:30:21;;;;;;;10.90;7.10;;;;;;;9.07;95.70;100792.84;1651211;85;25714;-71
2022/09/22 05:32:48;;;;;;;14.30;9.55;;;;;;;9.10;95.79;100788.22;1646510;85;25666;-71
2022/09/22 05:35:19;;;;;;;11.05;7.97;;;;;;;9.12;95.80;100790.88;1660924;86;25623;-71
2022/09/22 05:37:48;;;;;;;17.65;9.05;;;;;;;9.16;95.80;100794.62;1643269;85;25699;-72
2022/09/22 05:40:15;;;;;;;;;;;;;;;9.19;95.70;100792.44;1654163;86;27358;-71
2022/09/22 05:42:50;;;;;;;10.60;6.83;;;;;;;9.20;95.76;100793.51;1658833;85;25519;-73
2022/09/22 05:45:19;;;;;;;18.12;8.70;;;;;;;9.22;95.82;100796.72;1658842;86;25772;-70
2022/09/22 05:47:47;;;;;;;14.60;7.83;;;;;;;9.25;95.82;100798.05;1659687;85;25774;-71
2022/09/22 05:50:16;;;;;;;12.50;7.97;;;;;;;9.26;95.82;100799.11;1663520;86;25685;-71
2022/09/22 05:52:43;;;;;;;13.43;8.58;;;;;;;9.29;95.95;100802.56;1646495;84;27346;-71
2022/09/22 05:55:11;;;;;;;16.45;8.10;;;;;;;9.32;96.07;100806.05;1680976;85;25679;-71
2022/09/22 05:57:37;;;;;;;12.93;8.75;;;;;;;9.35;95.98;100806.83;1683129;84;25564;-71
2022/09/22 06:00:08;;;;;;;12.23;8.10;;;;;;;9.39;96.24;100813.80;1684624;85;27765;-71
2022/09/22 06:02:34;;;;;;;13.78;8.25;;;;;;;9.43;96.40;100809.45;1684819;85;25651;-71
2022/09/22 06:05:00;;;;;;;21.45;9.33;;;;;;;9.46;96.18;100806.70;1685663;84;27392;-71
2022/09/22 06:07:27;;;;;;;14.13;9.23;;;;;;;9.48;96.23;100813.44;1685678;84;25331;-71
2022/09/22 06:09:53;;;;;;;14.65;9.20;;;;;;;9.52;96.33;100808.27;1677373;84;25495;-71
2022/09/22 06:12:20;;;;;;;12.28;8.85;;;;;;;9.55;96.32;100811.71;1678792;85;25629;-71
2022/09/22 06:14:47;;;;;;;13.83;8.95;;;;;;;9.58;96.22;100809.78;1628356;88;25575;-71
2022/09/22 06:17:13;;;;;;;16.25;9.45;;;;;;;9.60;96.13;100814.91;1699861;84;28467;-72
2022/09/22 06:19:41;;;;;;;15.68;9.18;;;;;;;9.64;96.48;100811.34;1699017;84;25620;-71
2022/09/22 06:22:10;;;;;;;13.83;9.05;;;;;;;9.71;96.75;100809.64;1676837;85;25583;-72
2022/09/22 06:24:36;;;;;;;17.77;8.70;;;;;;;9.75;96.49;100819.31;1699393;84;25701;-71
2022/09/22 06:27:03;;;;;;;14.38;9.65;;;;;;;9.81;96.97;100817.61;1699093;84;25676;-71
2022/09/22 06:29:29;;;;;;;16.10;8.90;;;;;;;9.87;97.02;100820.48;1669911;84;27338;-71
2022/09/22 06:31:55;;;;;;;15.13;8.65;;;;;;;9.90;96.64;100818.55;1699774;84;25652;-72
2022/09/22 06:34:22;;;;;;;14.20;8.58;;;;;;;9.97;96.55;100816.05;1699713;84;25673;-71
2022/09/22 06:36:49;;;;;;;16.85;8.45;;;;;;;9.98;96.37;100815.76;1699830;84;25753;-71
2022/09/22 06:39:15;;;;;;;15.40;8.73;;;;;;;10.02;96.38;100812.72;1699237;84;25561;-72
2022/09/22 06:41:43;;;;;;;12.35;9.05;;;;;;;10.09;96.87;100809.64;1699337;84;28008;-71
2022/09/22 06:44:11;;;;;;;15.70;9.28;;;;;;;10.15;97.03;100810.36;1677959;85;25765;-71
2022/09/22 06:46:38;;;;;;;13.40;9.35;;;;;;;10.21;96.87;100809.20;1669795;84;26333;-72
2022/09/22 06:49:04;;;;;;;14.60;9.30;;;;;;;10.25;96.69;100810.24;1699003;84;26259;-71
2022/09/22 06:51:34;;;;;;;15.08;10.13;;;;;;;10.31;96.86;100813.10;1698497;84;25427;-70
2022/09/22 06:54:04;;;;;;;15.88;9.55;;;;;;;10.38;97.39;100818.17;1687040;83;28029;-70
2022/09/22 06:56:41;;;;;;;15.70;9.23;;;;;;;10.48;97.78;100819.36;1651060;86;25461;-68
2022/09/22 06:59:09;;;;;;;13.32;8.73;;;;;;;10.58;97.69;100816.48;1650785;86;25623;-67
2022/09/22 07:01:36;;;;;;;14.07;8.98;;;;;;;10.63;96.89;100810.20;1651726;86;26274;-67
2022/09/22 07:04:06;;;;;;;15.40;9.58;;;;;;;10.64;96.11;100818.02;1652368;85;25469;-67
2022/09/22 07:06:34;;;;;;;12.68;8.95;;;;;;;10.69;96.14;100816.31;1684120;84;27372;-67
2022/09/22 07:09:00;;;;;;;14.85;9.78;;;;;;;10.73;95.99;100820.05;1640108;86;25469;-67
2022/09/22 07:11:30;;;;;;;14.83;9.80;;;;;;;10.78;96.05;100818.05;1651046;86;25771;-67
2022/09/22 07:13:57;;;;;;;16.45;9.48;;;;;;;10.81;96.04;100820.17;1650608;86;25696;-67
2022/09/22 07:16:25;;;;;;;12.73;9.85;;;;;;;10.86;96.04;100813.84;1622989;88;25595;-67
2022/09/22 07:18:55;;;;;;;14.18;8.85;;;;;;;10.91;95.68;100821.08;1649151;86;27392;-69
2022/09/22 07:21:31;;;;;;;12.73;9.70;;;;;;;10.94;95.73;100822.63;1621978;88;25481;-68
2022/09/22 07:23:58;;;;;;;12.82;9.70;;;;;;;10.95;95.01;100819.39;1617491;87;25585;-67
2022/09/22 07:26:31;;;;;;;17.17;9.50;;;;;;;10.97;94.93;100821.25;1624921;86;25729;-68
2022/09/22 07:29:01;;;;;;;12.47;9.28;;;;;;;11.03;95.62;100822.73;1638317;86;25732;-69
2022/09/22 07:31:30;;;;;;;17.02;10.90;;;;;;;11.10;95.30;100821.00;1651063;86;27892;-68
2022/09/22 07:34:00;;;;;;;;;;;;;;;11.14;95.01;100824.17;1685254;85;25466;-68
2022/09/22 07:36:30;;;;;;;13.43;9.70;;;;;;;11.22;95.67;100825.39;1683995;85;25724;-68
2022/09/22 07:39:00;;;;;;;;;;;;;;;11.29;95.19;100824.97;1648203;86;25794;-68
2022/09/22 07:41:29;;;;;;;13.72;9.65;;;;;;;11.35;95.31;100821.06;1652856;86;25486;-68
2022/09/22 07:45:11;;;;;;;13.13;9.63;;;;;;;11.40;94.86;100826.38;1652999;86;28066;-69
2022/09/22 07:46:27;;;;;;;13.05;9.43;;;;;;;11.48;95.22;100827.59;1651250;86;26233;-68
2022/09/22 07:48:54;;;;;;;11.85;9.83;;;;;;;11.55;95.18;100826.63;1653002;86;25732;-69
2022/09/22 07:51:24;;;;;;;11.83;8.43;;;;;;;11.64;95.04;100829.44;1652928;86;25836;-70
2022/09/22 07:54:06;;;;;;;11.83;8.25;;;;;;;11.69;94.70;100823.34;1634698;84;25785;-68
2022/09/22 07:56:26;;;;;;;16.40;10.75;;;;;;;11.77;94.76;100823.98;1675517;85;27516;-68
2022/09/22 07:58:53;;;;;;;12.23;8.73;;;;;;;11.87;95.10;100828.40;1677795;84;25802;-69
2022/09/22 08:01:22;;;;;;;14.70;8.70;;;;;;;11.99;95.08;100817.06;1656814;85;25797;-70
2022/09/22 08:03:50;;;;;;;11.43;9.28;;;;;;;12.12;95.14;100827.59;1654434;85;35162;-69
2022/09/22 08:06:19;;;;;;;10.85;8.93;;;;;;;12.30;95.72;100823.13;1660901;85;26495;-69
2022/09/22 08:08:52;;;;;;;;;;;;;;;12.47;95.30;100824.61;1656593;86;28141;-70
2022/09/22 08:11:20;;;;;;;16.45;11.08;;;;;;;12.69;95.68;100821.08;1654979;86;25706;-68
2022/09/22 08:14:01;;;;;;;12.43;9.53;;;;;;;12.90;94.80;100824.63;1631458;86;25300;-69
2022/09/22 08:16:31;;;;;;;11.45;9.25;;;;;;;13.06;93.85;100820.41;1655362;86;25684;-69
2022/09/22 08:19:02;;;;;;;11.50;8.68;;;;;;;13.22;93.57;100822.70;1677278;85;26387;-69
2022/09/22 08:21:37;;;;;;;9.80;7.85;;;;;;;13.41;93.42;100819.77;1665214;85;27335;-69
2022/09/22 08:24:08;;;;;;;7.70;6.95;;;;;;;13.52;92.22;100827.88;1677454;85;25404;-69
2022/09/22 08:26:37;;;;;;;12.45;7.92;;;;;;;13.56;89.93;100830.20;1674214;85;25420;-68
2022/09/22 08:29:06;;;;;;;8.93;8.00;;;;;;;13.65;90.34;100832.93;1677426;85;25648;-68
2022/09/22 08:31:34;;;;;;;9.03;6.83;;;;;;;13.91;92.28;100825.38;1677794;84;25475;-69
2022/09/22 08:34:02;;;;;;;13.20;8.18;;;;;;;14.26;92.67;100839.01;1677078;84;27395;-69
2022/09/22 08:36:28;;;;;;;11.00;6.95;;;;;;;14.78;94.10;100832.72;1675153;85;25575;-67
2022/09/22 08:38:55;;;;;;;7.20;6.08;;;;;;;15.73;95.76;100833.44;1669630;85;25728;-68
2022/09/22 08:41:30;;;;;;;6.95;5.30;;;;;;;16.43;93.24;100829.09;1644925;86;25724;-68
2022/09/22 08:44:10;;;;;;;10.20;7.60;;;;;;;17.11;90.65;100833.94;1675025;84;25824;-67
2022/09/22 08:46:42;;;;;;;9.08;7.30;;;;;;;17.27;84.97;100825.88;1670959;85;27423;-68
2022/09/22 08:52:32;;;;;;;5.90;4.97;;;;;;;18.17;83.09;100830.78;1675105;85;25665;-69
2022/09/22 08:55:00;;;;;;;6.45;4.83;;;;;;;18.92;83.57;100833.42;1642347;85;25729;-69
2022/09/22 08:57:39;;;;;;;5.85;4.10;;;;;;;19.65;81.29;100824.39;1628324;86;25671;-69
2022/09/22 09:00:13;;;;;;;;;;;;;;;19.98;78.35;100824.53;1647526;87;28183;-67
2022/09/22 09:03:15;;;;;;;7.00;4.30;;;;;;;20.23;76.69;100823.69;1641144;87;25709;-67
2022/09/22 09:05:49;;;;;;;4.78;3.60;;;;;;;20.45;74.72;100826.27;1648662;86;25478;-67
2022/09/22 09:08:51;;;;;;;6.58;3.20;;;;;;;20.59;72.43;100817.50;1644178;87;25645;-67
2022/09/22 09:11:32;;;;;;;4.40;2.62;;;;;;;20.42;69.60;100822.08;1648463;87;25738;-67
2022/09/22 09:14:15;;;;;;;3.50;2.75;;;;;;;20.08;68.42;100816.31;1648518;87;27587;-69
2022/09/22 09:17:04;;;;;;;3.87;3.08;;;;;;;19.73;67.70;100815.17;1646134;87;25634;-68
2022/09/22 09:19:44;;;;;;;4.83;2.87;;;;;;;19.62;67.90;100816.87;1648866;87;25832;-67
2022/09/22 09:22:24;;;;;;;3.60;2.70;;;;;;;20.05;69.81;100808.20;1648530;87;25750;-64
2022/09/22 09:25:05;;;;;;;7.12;3.27;;;;;;;20.63;69.20;100794.23;1642999;86;25587;-64
2022/09/22 09:27:37;;;;;;;5.12;2.70;;;;;;;21.05;67.48;100805.16;1648759;86;28038;-64
2022/09/22 09:30:17;;;;;;;4.92;2.80;;;;;;;20.97;65.27;100802.67;1643276;87;25749;-65
2022/09/22 09:33:00;;;;;;;3.67;2.42;;;;;;;20.84;64.55;100802.05;1617827;87;25742;-66
2022/09/22 09:35:43;;;;;;;2.95;2.50;;;;;;;20.86;62.82;100803.88;1636918;87;25731;-64
2022/09/22 09:38:16;;;;;;;3.35;2.15;;;;;;;20.62;62.29;100802.22;1646965;87;25751;-66
2022/09/22 09:40:53;;;;;;;4.83;2.50;;;;;;;20.60;62.86;100797.11;1646866;86;27346;-66
2022/09/22 09:43:21;;;;;;;5.20;2.22;;;;;;;20.80;62.92;100791.58;1648575;87;25484;-65
2022/09/22 09:46:05;;;;;;;2.50;2.25;;;;;;;21.24;62.93;100791.91;1644756;87;25732;-65
2022/09/22 09:48:57;;;;;;;3.92;2.52;;;;;;;21.30;61.12;100791.59;1647227;87;25644;-66
2022/09/22 09:51:24;;;;;;;3.40;1.77;;;;;;;21.08;60.09;100787.15;1647022;87;25780;-66
2022/09/22 09:53:53;;;;;;;4.20;2.40;;;;;;;20.68;58.69;100785.09;1650963;85;27349;-65
2022/09/22 09:56:27;;;;;;;4.78;3.55;;;;;;;20.38;58.55;100783.56;1636909;86;26321;-66
2022/09/22 10:01:52;;;;;;;2.22;2.00;;;;;;;19.73;58.12;100793.77;1627404;87;25769;-66
2022/09/22 10:04:36;;;;;;;3.35;1.82;;;;;;;19.31;58.50;100793.83;1651159;86;25896;-65
2022/09/22 10:07:19;;;;;;;3.58;2.77;;;;;;;19.02;58.87;100792.36;1653692;86;28028;-66
2022/09/22 10:09:51;;;;;;;8.33;1.90;;;;;;;18.69;59.14;100796.77;1632571;86;25668;-65
2022/09/22 10:12:31;;;;;;;4.47;2.12;;;;;;;18.37;58.98;100796.70;1658106;86;25729;-67
2022/09/22 10:15:00;;;;;;;2.58;2.05;;;;;;;18.13;59.68;100795.66;1676455;85;25775;-66
2022/09/22 10:17:39;;;;;;;3.25;2.47;;;;;;;18.00;60.09;100794.91;1647660;86;25667;-66
2022/09/22 10:20:23;;;;;;;3.50;2.15;;;;;;;17.92;60.31;100792.53;1645870;86;27397;-65
2022/09/22 10:22:49;;;;;;;6.17;2.05;;;;;;;18.12;63.61;100794.08;1640455;86;25673;-66
2022/09/22 10:25:24;;;;;;;3.22;1.72;;;;;;;19.27;64.56;100788.83;1650673;86;25756;-66
2022/09/22 10:28:08;;;;;;;2.50;2.00;;;;;;;20.21;63.05;100783.98;1650746;86;26364;-66
2022/09/22 10:30:38;;;;;;;2.35;1.82;;;;;;;20.76;60.83;100779.74;1650892;86;25732;-66
2022/09/22 10:33:17;;;;;;;7.80;5.15;;;;;;;21.11;59.24;100771.85;1649992;86;27337;-66
2022/09/22 10:35:55;;;;;;;;;;;;;;;21.86;58.68;100770.17;1649727;86;25691;-68
2022/09/22 10:38:25;;;;;;;2.67;2.10;;;;;;;22.08;54.77;100771.22;1648568;85;25704;-66
2022/09/22 10:41:00;;;;;;;5.72;2.58;;;;;;;21.79;53.68;100776.41;1649852;86;26152;-66
2022/09/22 10:43:51;;;;;;;2.95;1.67;;;;;;;21.42;53.09;100781.17;1647384;86;25436;-67
2022/09/22 10:46:47;;;;;;;4.70;1.60;;;;;;;21.04;52.53;100782.97;1647732;86;27347;-67
2022/09/22 10:49:48;;;;;;;4.60;1.25;;;;;;;20.49;51.89;100779.04;1643810;86;25768;-67
2022/09/22 10:52:34;;;;;;;1.45;1.32;;;;;;;19.98;52.39;100779.23;1650962;86;25742;-65
2022/09/22 10:55:18;;;;;;;1.95;1.40;;;;;;;19.54;52.79;100782.98;1649512;84;26343;-65
2022/09/22 10:58:07;;;;;;;5.08;1.37;;;;;;;19.23;52.86;100785.22;1658186;85;25631;-66
2022/09/22 11:00:41;;;;;;;1.50;1.40;;;;;;;18.94;53.43;100788.63;1652259;86;27657;-64
2022/09/22 11:03:40;;;;;;;1.50;1.40;;;;;;;18.63;54.01;100785.28;1637866;87;25665;-65
2022/09/22 11:12:51;;;;;;;2.67;1.40;;;;;;;18.09;56.00;100774.23;1615896;87;25478;-66
2022/09/22 11:15:53;;;;;;;2.08;1.20;;;;;;;18.07;56.17;100767.74;1605746;88;27342;-65
2022/09/22 11:18:39;;;;;;;1.10;1.10;;;;;;;18.44;56.93;100766.79;1614733;87;25704;-67
2022/09/22 11:21:20;;;;;;;1.70;1.50;;;;;;;18.84;56.42;100765.87;1617338;87;25894;-66
2022/09/22 11:24:12;;;;;;;70.55;56.77;;;;;;;19.09;55.34;100762.95;1620579;88;25637;-69
2022/09/22 11:26:49;;;;;;;15.80;10.25;;;;;;;19.13;54.75;100761.87;1592686;89;25540;-69
2022/09/22 11:29:47;;;;;;;4.58;3.35;;;;;;;19.12;54.77;100762.22;1617515;87;27749;-69
2022/09/22 11:32:33;;;;;;;49.83;26.45;;;;;;;19.08;54.26;100757.23;1600281;87;25776;-69
2022/09/22 11:35:32;;;;;;;12.28;6.62;;;;;;;19.00;53.93;100762.56;1603315;87;25669;-70
2022/09/22 11:38:28;;;;;;;2.37;1.75;;;;;;;18.96;53.95;100754.81;1614364;87;26558;-69
2022/09/22 11:41:30;;;;;;;2.20;1.40;;;;;;;18.89;53.31;100758.75;1560910;91;25683;-68
2022/09/22 11:44:36;;;;;;;2.10;1.90;;;;;;;18.74;53.03;100761.67;1538611;92;25942;-70
2022/09/22 11:47:35;;;;;;;2.62;1.70;;;;;;;18.59;53.31;100764.64;1519174;92;26037;-70
2022/09/22 11:50:28;;;;;;;1.55;1.45;;;;;;;18.40;52.68;100757.67;1545765;91;25649;-69
2022/09/22 11:53:35;;;;;;;3.55;1.67;;;;;;;18.24;53.11;100757.64;1597947;88;25998;-70
2022/09/22 11:56:20;;;;;;;2.02;1.57;;;;;;;18.11;53.67;100756.30;1591329;88;25956;-71
2022/09/22 11:58:49;;;;;;;2.00;1.65;;;;;;;17.99;53.76;100762.41;1613057;88;27345;-71
2022/09/22 12:01:23;;;;;;;2.17;1.52;;;;;;;17.88;53.95;100750.59;1600218;87;62387;-65
2022/09/22 12:04:10;;;;;;;1.40;1.30;;;;;;;17.91;55.12;100752.64;1612794;88;25719;-65
2022/09/22 12:06:41;;;;;;;3.02;1.30;;;;;;;18.33;54.76;100754.74;1598718;89;26295;-66
2022/09/22 12:09:28;;;;;;;1.65;1.55;;;;;;;18.60;56.08;100751.16;1599687;89;25905;-65
2022/09/22 12:11:57;;;;;;;2.80;1.82;;;;;;;19.48;56.34;100746.58;1628588;87;28059;-66
2022/09/22 12:14:26;;;;;;;;;;;;;;;19.95;53.68;100749.20;1631084;88;25902;-69
2022/09/22 12:17:15;;;;;;;1.82;1.67;;;;;;;20.01;52.56;100755.77;1656696;84;25845;-69
2022/09/22 12:20:02;;;;;;;3.10;2.05;;;;;;;19.88;52.05;100758.64;1684035;83;26503;-69
2022/09/22 12:23:04;;;;;;;1.95;1.60;;;;;;;19.76;51.09;100750.55;1686140;83;25746;-69
2022/09/22 12:25:53;;;;;;;1.42;1.20;;;;;;;19.62;51.19;100745.53;1691254;83;27394;-69
2022/09/22 12:28:27;;;;;;;2.35;1.47;;;;;;;19.50;50.91;100740.97;1686447;84;25762;-69
2022/09/22 12:31:14;;;;;;;1.70;1.60;;;;;;;19.67;51.05;100746.62;1676730;85;25748;-71
2022/09/22 12:33:54;;;;;;;3.65;1.90;;;;;;;19.58;50.21;100749.57;1628730;86;26287;-71
2022/09/22 12:36:39;;;;;;;2.25;1.80;;;;;;;19.30;50.57;100751.68;1667974;85;25862;-70
2022/09/22 12:39:16;;;;;;;2.60;1.90;;;;;;;19.07;50.89;100755.64;1672487;84;28266;-70
2022/09/22 12:42:02;;;;;;;5.90;1.90;;;;;;;18.89;51.61;100752.48;1673016;85;25712;-68
2022/09/22 12:44:38;;;;;;;1.72;1.62;;;;;;;18.69;51.53;100752.93;1669590;85;25662;-69
2022/09/22 12:47:16;;;;;;;2.55;1.95;;;;;;;18.41;51.47;100749.69;1664903;85;26498;-69
2022/09/22 12:49:55;;;;;;;2.77;1.82;;;;;;;18.18;51.95;100752.19;1665364;85;25826;-70
2022/09/22 12:52:46;;;;;;;2.02;1.90;;;;;;;17.93;52.46;100750.93;1672386;85;28585;-70
2022/09/22 12:55:37;;;;;;;2.65;2.22;;;;;;;17.69;52.59;100748.46;1670957;85;26332;-68
2022/09/22 12:58:01;;;;;;;2.77;2.25;;;;;;;17.53;53.41;100755.78;1622794;87;25813;-68
2022/09/22 13:00:42;;;;;;;2.60;2.22;;;;;;;17.46;54.18;100746.79;1629839;87;25725;-68
2022/09/22 13:03:29;;;;;;;3.00;2.62;;;;;;;17.36;54.49;100750.78;1592549;87;73826;-70
2022/09/22 13:06:25;;;;;;;6.60;3.37;;;;;;;17.34;54.88;100749.55;1621125;87;27351;-71
2022/09/22 13:08:57;;;;;;;7.33;3.62;;;;;;;17.30;54.94;100747.28;1627696;88;25667;-70
2022/09/22 13:12:11;;;;;;;3.10;2.47;;;;;;;17.20;55.07;100743.08;1623196;86;25722;-71
2022/09/22 13:15:01;;;;;;;4.95;3.30;;;;;;;17.15;55.72;100739.20;1608313;86;25765;-71
2022/09/22 13:17:48;;;;;;;3.65;2.40;;;;;;;17.07;55.98;100736.02;1604286;88;25756;-71
2022/09/22 13:20:34;;;;;;;2.62;1.80;;;;;;;17.01;56.29;100728.63;1604753;88;26883;-71
2022/09/22 13:23:11;;;;;;;4.03;2.45;;;;;;;16.92;56.05;100726.55;1579353;87;25774;-69
2022/09/22 13:25:41;;;;;;;4.12;2.62;;;;;;;16.81;56.16;100728.34;1609866;88;25625;-70
2022/09/22 13:28:15;;;;;;;4.20;2.30;;;;;;;16.76;56.25;100734.03;1616774;88;25704;-71
2022/09/22 13:30:44;;;;;;;3.87;2.00;;;;;;;16.70;56.08;100727.21;1613768;88;25731;-71
2022/09/22 13:33:27;;;;;;;3.15;1.87;;;;;;;16.63;56.11;100731.05;1625446;88;27413;-71
2022/09/22 13:36:08;;;;;;;4.08;2.25;;;;;;;16.59;56.13;100729.56;1608151;87;25654;-71
2022/09/22 13:38:40;;;;;;;3.83;2.02;;;;;;;16.54;55.95;100731.16;1627928;88;25677;-71
2022/09/22 13:41:26;;;;;;;9.05;3.10;;;;;;;16.50;56.06;100733.53;1621827;86;26317;-70
2022/09/22 13:44:03;;;;;;;3.17;2.30;;;;;;;16.50;56.45;100732.16;1619617;87;25658;-69
2022/09/22 13:46:41;;;;;;;1.85;1.67;;;;;;;16.56;56.80;100726.72;1627321;88;27312;-69
2022/09/22 13:49:12;;;;;;;2.55;2.15;;;;;;;16.71;56.92;100725.27;1610036;87;25757;-65
2022/09/22 13:51:39;;;;;;;2.62;2.42;;;;;;;16.93;57.13;100721.33;1625097;88;25802;-65
2022/09/22 13:54:08;;;;;;;3.33;2.25;;;;;;;17.11;56.32;100722.70;1603302;87;25631;-65
2022/09/22 13:56:36;;;;;;;4.28;2.08;;;;;;;17.27;56.76;100721.42;1617991;86;32980;-66
2022/09/22 13:59:04;;;;;;;5.87;4.47;;;;;;;17.38;55.90;100724.47;1604417;87;27279;-65
2022/09/22 14:01:30;;;;;;;13.22;5.15;;;;;;;17.35;55.75;100720.50;1610157;88;25716;-65
2022/09/22 14:03:57;;;;;;;2.20;2.00;;;;;;;17.30;55.26;100722.68;1614510;87;37228;-65
2022/09/22 14:06:30;;;;;;;3.15;2.25;;;;;;;17.17;55.29;100715.84;1645798;86;25964;-68
2022/09/22 14:08:57;;;;;;;3.62;2.08;;;;;;;17.09;55.19;100716.75;1646166;85;25852;-66
2022/09/22 14:11:29;;;;;;;2.40;2.00;;;;;;;17.03;55.22;100720.88;1641538;85;27415;-65
2022/09/22 14:14:00;;;;;;;2.62;2.42;;;;;;;16.97;55.23;100720.31;1614497;88;25749;-64
2022/09/22 14:16:37;;;;;;;2.35;2.15;;;;;;;16.87;55.44;100718.01;1613557;88;25744;-64
2022/09/22 14:19:09;;;;;;;3.40;2.37;;;;;;;16.83;55.61;100717.66;1634099;86;27845;-66
2022/09/22 14:21:52;;;;;;;6.08;3.33;;;;;;;16.73;55.79;100722.99;1628488;86;25873;-68
2022/09/22 14:24:18;;;;;;;3.05;2.50;;;;;;;16.68;56.17;100714.44;1643646;85;27685;-68
2022/09/22 14:26:52;;;;;;;3.47;2.02;;;;;;;16.64;56.38;100717.64;1629836;86;25718;-66
2022/09/22 14:29:23;;;;;;;2.15;1.95;;;;;;;16.78;57.00;100720.03;1650547;85;25705;-66
2022/09/22 14:32:01;;;;;;;2.92;2.45;;;;;;;16.92;56.84;100712.89;1651405;86;25930;-65
2022/09/22 14:34:30;;;;;;;3.77;2.70;;;;;;;17.13;57.02;100712.21;1641467;86;25748;-66
2022/09/22 14:36:58;;;;;;;4.37;2.40;;;;;;;17.47;56.72;100715.58;1642496;86;27788;-68
2022/09/22 14:39:29;;;;;;;3.10;2.77;;;;;;;17.68;56.31;100716.77;1652113;85;25492;-68
2022/09/22 14:41:57;;;;;;;3.77;2.95;;;;;;;17.82;56.05;100713.64;1651777;86;25819;-67
2022/09/22 14:44:39;;;;;;;3.25;2.42;;;;;;;17.92;55.48;100723.33;1648237;86;25731;-68
2022/09/22 14:47:26;;;;;;;2.67;2.47;;;;;;;17.96;55.22;100715.22;1620068;87;25808;-67
2022/09/22 14:50:20;;;;;;;4.37;2.87;;;;;;;17.99;54.96;100715.31;1615743;88;27338;-67
2022/09/22 14:52:55;;;;;;;7.67;4.50;;;;;;;18.05;54.85;100710.41;1622865;87;25855;-71
2022/09/22 14:55:41;;;;;;;3.67;2.50;;;;;;;18.18;55.16;100708.38;1583302;89;25801;-68
2022/09/22 14:58:24;;;;;;;3.27;2.60;;;;;;;18.25;54.76;100710.75;1570198;91;26299;-68
2022/09/22 15:03:53;;;;;;;5.25;2.50;;;;;;;18.16;53.67;100711.47;1571073;86;44021;-67
2022/09/22 15:06:20;;;;;;;2.50;2.30;;;;;;;18.02;53.82;100709.14;1569246;91;25811;-67
2022/09/22 15:08:52;;;;;;;3.50;2.25;;;;;;;17.93;53.51;100715.36;1554157;91;25766;-67
2022/09/22 15:11:18;;;;;;;2.47;2.00;;;;;;;17.78;53.53;100712.75;1526508;93;25939;-68
2022/09/22 15:13:50;;;;;;;4.78;2.58;;;;;;;17.68;53.80;100709.14;1557203;90;25896;-67
2022/09/22 15:16:40;;;;;;;2.70;2.50;;;;;;;17.50;53.93;100698.48;1563921;91;27397;-67
2022/09/22 15:19:14;;;;;;;4.20;2.20;;;;;;;17.35;54.40;100706.83;1554171;91;25780;-68
2022/09/22 15:21:49;;;;;;;2.30;2.05;;;;;;;17.14;54.51;100702.86;1550544;91;25482;-67
2022/09/22 15:24:16;;;;;;;1.95;1.62;;;;;;;17.04;55.00;100699.80;1553400;91;26704;-68
2022/09/22 15:26:43;;;;;;;2.62;1.90;;;;;;;16.91;55.12;100701.17;1562030;91;25846;-67
2022/09/22 15:29:10;;;;;;;3.35;2.80;;;;;;;16.77;55.30;100700.12;1562228;91;27442;-68
2022/09/22 15:31:38;;;;;;;3.25;2.80;;;;;;;16.67;55.03;100706.59;1563024;90;25847;-67
2022/09/22 15:34:05;;;;;;;3.10;2.80;;;;;;;16.52;55.38;100711.59;1621399;86;25753;-68
2022/09/22 15:36:35;;;;;;;3.67;2.47;;;;;;;16.36;55.01;100703.81;1598098;87;26455;-68
2022/09/22 15:39:10;;;;;;;2.72;2.05;;;;;;;16.18;55.09;100710.83;1645308;86;25820;-68
2022/09/22 15:41:37;;;;;;;3.05;2.60;;;;;;;16.02;55.28;100707.13;1619084;86;28715;-67
2022/09/22 15:44:03;;;;;;;2.12;1.62;;;;;;;15.82;55.04;100704.10;1603532;88;25720;-68
2022/09/22 15:46:36;;;;;;;2.77;1.70;;;;;;;15.63;55.14;100708.64;1603861;88;25637;-69
2022/09/22 15:49:11;;;;;;;4.75;3.00;;;;;;;15.47;54.91;100713.09;1601770;88;25807;-68
2022/09/22 15:51:37;;;;;;;4.28;2.40;;;;;;;15.28;54.96;100714.33;1605339;88;25752;-68
2022/09/22 15:54:14;;;;;;;2.83;2.05;;;;;;;15.12;54.93;100720.13;1599646;88;27489;-67
2022/09/22 15:56:42;;;;;;;3.17;2.00;;;;;;;14.97;55.04;100725.57;1601298;87;25719;-67
2022/09/22 15:59:15;;;;;;;5.92;2.30;;;;;;;14.81;55.17;100723.94;1611149;87;25784;-67
2022/09/22 16:01:43;;;;;;;2.70;2.00;;;;;;;14.65;55.30;100737.30;1607435;87;25957;-67
2022/09/22 16:04:11;;;;;;;3.83;2.02;;;;;;;14.52;55.32;100735.55;1610375;87;25521;-68